createdAt,value
2023-02-18T00:00:59.620Z,20.30
2023-02-18T00:03:27.939Z,26.73
2023-02-18T00:05:55.044Z,17.20
2023-02-18T00:08:22.538Z,26.57
2023-02-18T00:10:49.399Z,31.87
2023-02-18T00:13:16.095Z,18.73
2023-02-18T00:15:42.883Z,17.07
2023-02-18T00:18:09.756Z,30.93
2023-02-18T00:20:39.647Z,21.03
2023-02-18T00:23:06.280Z,26.73
2023-02-18T00:25:32.921Z,16.57
2023-02-18T00:27:59.538Z,29.40
2023-02-18T00:30:26.256Z,25.50
2023-02-18T00:32:52.861Z,18.37
2023-02-18T00:35:19.476Z,31.33
2023-02-18T00:37:46.059Z,33.17
2023-02-18T00:40:12.957Z,18.50
2023-02-18T00:42:39.587Z,33.10
2023-02-18T00:45:06.602Z,21.97
2023-02-18T00:47:33.263Z,28.03
2023-02-18T00:49:59.857Z,33.47
2023-02-18T00:52:26.478Z,26.77
2023-02-18T00:54:53.156Z,32.83
2023-02-18T00:57:19.752Z,23.03
2023-02-18T00:59:46.464Z,20.77
2023-02-18T01:02:13.151Z,21.60
2023-02-18T01:04:39.792Z,26.53
2023-02-18T01:07:06.496Z,22.87
2023-02-18T01:09:33.109Z,29.33
2023-02-18T01:11:59.740Z,21.07
2023-02-18T01:14:26.379Z,8.10
2023-02-18T01:16:52.974Z,19.23
2023-02-18T01:19:19.622Z,23.90
2023-02-18T01:21:46.229Z,32.37
2023-02-18T01:24:12.898Z,25.90
2023-02-18T01:26:39.554Z,11.53
2023-02-18T01:29:06.171Z,23.20
2023-02-18T01:31:32.878Z,32.77
2023-02-18T01:33:59.559Z,15.37
2023-02-18T01:36:26.154Z,34.10
2023-02-18T01:38:53.653Z,33.20
2023-02-18T01:41:21.131Z,34.83
2023-02-18T01:43:47.802Z,28.10
2023-02-18T01:46:15.712Z,22.63
2023-02-18T01:48:55.819Z,24.97
2023-02-18T01:51:32.265Z,23.50
2023-02-18T01:54:20.582Z,22.90
2023-02-18T01:57:04.272Z,19.93
2023-02-18T01:59:36.954Z,30.70
2023-02-18T02:02:04.654Z,24.07
2023-02-18T02:04:31.323Z,18.00
2023-02-18T02:06:58.016Z,26.03
2023-02-18T02:09:28.526Z,18.00
2023-02-18T02:12:13.177Z,37.33
2023-02-18T02:14:50.696Z,18.70
2023-02-18T02:17:36.300Z,30.67
2023-02-18T02:20:40.616Z,29.83
2023-02-18T02:23:53.240Z,34.30
2023-02-18T02:26:41.020Z,20.70
2023-02-18T02:29:16.578Z,31.37
2023-02-18T02:32:04.416Z,26.10
2023-02-18T02:34:50.448Z,26.90
2023-02-18T02:37:27.545Z,20.07
2023-02-18T02:40:12.114Z,22.07
2023-02-18T02:42:53.631Z,29.33
2023-02-18T02:45:38.869Z,20.90
2023-02-18T02:48:30.314Z,31.23
2023-02-18T02:51:15.564Z,24.40
2023-02-18T02:53:43.367Z,18.13
2023-02-18T02:56:22.155Z,13.70
2023-02-18T02:59:01.954Z,29.90
2023-02-18T03:02:00.608Z,31.57
2023-02-18T03:04:54.424Z,18.80
2023-02-18T03:07:43.219Z,24.87
2023-02-18T03:10:35.560Z,15.97
2023-02-18T03:13:34.371Z,23.30
2023-02-18T03:16:07.958Z,16.77
2023-02-18T03:18:47.243Z,13.03
2023-02-18T03:21:22.753Z,16.13
2023-02-18T03:24:12.592Z,19.97
2023-02-18T03:26:45.213Z,34.03
2023-02-18T03:29:14.199Z,20.70
2023-02-18T03:31:45.476Z,17.90
2023-02-18T03:34:17.046Z,16.50
2023-02-18T03:36:44.230Z,13.83
2023-02-18T03:39:14.972Z,13.47
2023-02-18T03:41:42.374Z,10.57
2023-02-18T03:44:10.150Z,16.87
2023-02-18T03:46:38.960Z,24.03
2023-02-18T03:49:05.958Z,30.80
2023-02-18T03:51:32.900Z,16.13
2023-02-18T03:53:59.550Z,17.20
2023-02-18T03:56:26.255Z,10.13
2023-02-18T03:58:52.969Z,14.83
2023-02-18T04:01:19.628Z,10.53
2023-02-18T04:03:46.325Z,17.03
2023-02-18T04:06:13.223Z,10.53
2023-02-18T04:08:39.961Z,8.80
2023-02-18T04:11:06.671Z,10.60
2023-02-18T04:13:33.349Z,10.83
2023-02-18T04:16:00.009Z,7.90
2023-02-18T04:18:26.647Z,11.93
2023-02-18T04:20:53.308Z,19.23
2023-02-18T04:23:20.150Z,6.57
2023-02-18T04:25:46.826Z,18.97
2023-02-18T04:28:15.391Z,15.10
2023-02-18T04:30:42.767Z,17.10
2023-02-18T04:33:09.522Z,13.03
2023-02-18T04:35:36.833Z,10.57
2023-02-18T04:38:03.939Z,22.97
2023-02-18T04:40:30.755Z,12.60
2023-02-18T04:43:00.901Z,12.30
2023-02-18T04:45:28.314Z,10.77
2023-02-18T04:47:55.396Z,8.50
2023-02-18T04:50:23.011Z,20.13
2023-02-18T04:52:49.782Z,6.33
2023-02-18T04:55:16.530Z,11.73
2023-02-18T04:57:43.149Z,24.70
2023-02-18T05:00:13.228Z,8.80
2023-02-18T05:02:39.858Z,12.73
2023-02-18T05:05:06.519Z,11.40
2023-02-18T05:07:34.208Z,17.30
2023-02-18T05:10:00.806Z,12.63
2023-02-18T05:12:27.420Z,19.47
2023-02-18T05:14:54.035Z,3.80
2023-02-18T05:17:20.873Z,10.77
2023-02-18T05:19:47.468Z,5.53
2023-02-18T05:22:14.120Z,23.60
2023-02-18T05:24:40.720Z,21.00
2023-02-18T05:27:07.331Z,8.63
2023-02-18T05:29:34.014Z,14.40
2023-02-18T05:32:00.825Z,20.10
2023-02-18T05:34:27.455Z,7.63
2023-02-18T05:36:54.071Z,9.30
2023-02-18T05:39:20.665Z,11.90
2023-02-18T05:41:47.314Z,17.60
2023-02-18T05:44:32.391Z,10.47
2023-02-18T05:47:11.697Z,10.90
2023-02-18T05:49:39.699Z,16.43
2023-02-18T05:52:07.854Z,14.47
2023-02-18T05:54:35.183Z,7.87
2023-02-18T05:57:02.585Z,9.47
2023-02-18T05:59:29.465Z,12.47
2023-02-18T06:01:56.078Z,15.73
2023-02-18T06:04:22.878Z,9.70
2023-02-18T06:06:49.928Z,8.47
2023-02-18T06:09:16.756Z,10.10
2023-02-18T06:11:43.733Z,13.80
2023-02-18T06:14:10.391Z,10.13
2023-02-18T06:16:37.110Z,10.23
2023-02-18T06:19:03.734Z,11.37
2023-02-18T06:21:30.493Z,17.07
2023-02-18T06:23:57.152Z,12.63
2023-02-18T06:26:23.840Z,7.60
2023-02-18T06:28:50.470Z,15.80
2023-02-18T06:31:17.140Z,13.23
2023-02-18T06:33:43.948Z,8.73
2023-02-18T06:36:13.016Z,6.73
2023-02-18T06:38:42.684Z,7.47
2023-02-18T06:41:10.223Z,9.60
2023-02-18T06:43:37.167Z,9.60
2023-02-18T06:46:04.748Z,13.17
2023-02-18T06:48:31.978Z,6.77
2023-02-18T06:50:58.689Z,4.73
2023-02-18T06:53:25.426Z,14.37
2023-02-18T06:55:52.019Z,2.43
2023-02-18T06:58:18.633Z,1.10
2023-02-18T07:00:45.326Z,6.10
2023-02-18T07:03:14.712Z,5.27
2023-02-18T07:05:42.337Z,8.57
2023-02-18T07:08:09.355Z,12.73
2023-02-18T07:10:36.080Z,8.90
2023-02-18T07:13:02.746Z,3.83
2023-02-18T07:15:29.380Z,14.07
2023-02-18T07:17:56.382Z,11.67
2023-02-18T07:20:25.596Z,6.37
2023-02-18T07:22:52.969Z,11.93
2023-02-18T07:25:22.101Z,11.23
2023-02-18T07:27:49.755Z,16.40
2023-02-18T07:30:16.504Z,7.80
2023-02-18T07:32:43.303Z,12.83
2023-02-18T07:35:13.014Z,13.00
2023-02-18T07:37:39.711Z,10.03
2023-02-18T07:40:07.124Z,7.00
2023-02-18T07:42:33.717Z,16.47
2023-02-18T07:45:00.606Z,6.23
2023-02-18T07:47:27.280Z,5.87
2023-02-18T07:49:53.862Z,8.10
2023-02-18T07:52:20.446Z,12.23
2023-02-18T07:54:47.120Z,7.80
2023-02-18T07:57:13.752Z,20.17
2023-02-18T07:59:40.562Z,14.93
2023-02-18T08:02:07.671Z,14.90
2023-02-18T08:04:34.689Z,7.90
2023-02-18T08:07:01.326Z,13.57
2023-02-18T08:09:28.077Z,15.33
2023-02-18T08:11:54.718Z,14.33
2023-02-18T08:14:21.415Z,21.60
2023-02-18T08:16:48.038Z,8.70
2023-02-18T08:19:14.793Z,10.53
2023-02-18T08:21:41.387Z,5.83
2023-02-18T08:24:08.221Z,14.57
2023-02-18T08:26:34.891Z,15.33
2023-02-18T08:29:01.555Z,7.83
2023-02-18T08:31:29.869Z,7.80
2023-02-18T08:33:57.760Z,10.13
2023-02-18T08:36:24.803Z,7.17
2023-02-18T08:38:51.409Z,5.03
2023-02-18T08:41:20.996Z,10.83
2023-02-18T08:43:48.153Z,8.70
2023-02-18T08:46:16.562Z,5.80
2023-02-18T08:48:51.961Z,14.80
2023-02-18T08:51:21.704Z,9.03
2023-02-18T08:53:49.399Z,10.53
2023-02-18T08:56:17.691Z,8.87
2023-02-18T08:58:44.695Z,5.27
2023-02-18T09:01:13.123Z,10.23
2023-02-18T09:03:39.810Z,5.60
2023-02-18T09:06:06.805Z,20.73
2023-02-18T09:08:33.473Z,7.67
2023-02-18T09:11:04.366Z,19.20
2023-02-18T09:13:32.121Z,14.30
2023-02-18T09:16:04.278Z,19.93
2023-02-18T09:18:32.134Z,12.67
2023-02-18T09:21:00.239Z,14.10
2023-02-18T09:23:29.885Z,11.53
2023-02-18T09:25:57.480Z,10.93
2023-02-18T09:28:25.121Z,10.33
2023-02-18T09:30:52.564Z,13.93
2023-02-18T09:33:19.352Z,18.10
2023-02-18T09:35:46.945Z,30.83
2023-02-18T09:38:16.481Z,14.17
2023-02-18T09:40:47.507Z,10.30
2023-02-18T09:43:43.615Z,18.07
2023-02-18T09:46:17.839Z,26.10
2023-02-18T09:48:46.080Z,18.47
2023-02-18T09:51:15.472Z,15.60
2023-02-18T09:53:47.135Z,10.83
2023-02-18T09:56:19.861Z,26.97
2023-02-18T09:58:47.808Z,18.60
2023-02-18T10:01:35.501Z,11.33
2023-02-18T10:04:15.537Z,19.70
2023-02-18T10:06:43.554Z,11.63
2023-02-18T10:09:22.587Z,11.67
2023-02-18T10:11:54.930Z,12.13
2023-02-18T10:14:21.582Z,8.30
2023-02-18T10:16:50.706Z,9.43
2023-02-18T10:19:33.541Z,14.63
2023-02-18T10:22:03.827Z,10.07
2023-02-18T10:25:00.585Z,13.23
2023-02-18T10:27:31.858Z,10.37
2023-02-18T10:30:30.009Z,12.03
2023-02-18T10:33:09.964Z,13.00
2023-02-18T10:35:53.041Z,10.10
2023-02-18T10:39:00.794Z,12.50
2023-02-18T10:42:07.602Z,8.40
2023-02-18T10:45:12.163Z,8.97
2023-02-18T10:47:42.384Z,10.40
2023-02-18T10:50:13.825Z,8.47
2023-02-18T10:52:47.510Z,10.67
2023-02-18T10:55:18.430Z,18.47
2023-02-18T10:57:49.355Z,7.10
2023-02-18T11:00:27.225Z,12.60
2023-02-18T11:03:17.432Z,8.50
2023-02-18T11:05:45.840Z,9.27
2023-02-18T11:08:19.498Z,11.57
2023-02-18T11:10:48.258Z,7.07
2023-02-18T11:13:18.117Z,10.47
2023-02-18T11:16:15.875Z,9.10
2023-02-18T11:18:46.682Z,13.03
2023-02-18T11:21:32.165Z,12.97
2023-02-18T11:24:10.299Z,12.20
2023-02-18T11:26:39.718Z,8.57
2023-02-18T11:29:20.469Z,15.90
2023-02-18T11:31:50.171Z,14.37
2023-02-18T11:34:29.778Z,11.23
2023-02-18T11:37:18.174Z,11.87
2023-02-18T11:39:47.084Z,13.73
2023-02-18T11:42:16.475Z,12.67
2023-02-18T11:44:52.822Z,8.70
2023-02-18T11:47:24.515Z,9.07
2023-02-18T11:50:04.646Z,8.83
2023-02-18T11:52:43.143Z,3.30
2023-02-18T11:55:22.836Z,3.80
2023-02-18T11:57:56.412Z,1.57
2023-02-18T12:00:46.447Z,1.13
2023-02-18T12:03:41.865Z,1.80
2023-02-18T12:06:23.848Z,1.00
2023-02-18T12:09:26.435Z,0.80
2023-02-18T12:12:00.552Z,0.50
2023-02-18T12:14:27.412Z,0.40
2023-02-18T12:17:26.259Z,0.50
2023-02-18T12:20:14.382Z,0.50
2023-02-18T12:23:18.823Z,0.50
2023-02-18T12:26:06.525Z,0.40
2023-02-18T12:28:54.985Z,0.40
2023-02-18T12:31:31.766Z,1.90
2023-02-18T12:34:53.556Z,0.97
2023-02-18T12:37:22.952Z,10.27
2023-02-18T12:39:52.272Z,8.43
2023-02-18T12:42:54.332Z,1.90
2023-02-18T12:45:49.892Z,1.20
2023-02-18T12:48:31.512Z,11.17
2023-02-18T12:51:07.159Z,3.83
2023-02-18T12:53:59.084Z,13.10
2023-02-18T12:57:06.474Z,6.47
2023-02-18T12:59:36.147Z,7.03
2023-02-18T13:02:40.089Z,7.20
2023-02-18T13:05:29.988Z,9.97
2023-02-18T13:08:13.562Z,6.63
2023-02-18T13:10:56.491Z,10.57
2023-02-18T13:13:34.546Z,13.33
2023-02-18T13:16:12.909Z,17.03
2023-02-18T13:18:44.006Z,8.90
2023-02-18T13:21:15.989Z,18.13
2023-02-18T13:24:00.068Z,12.60
2023-02-18T13:26:29.701Z,11.47
2023-02-18T13:29:02.160Z,16.20
2023-02-18T13:31:47.091Z,10.47
2023-02-18T13:34:27.075Z,12.70
2023-02-18T13:37:02.989Z,12.27
2023-02-18T13:39:31.314Z,10.63
2023-02-18T13:42:27.223Z,28.63
2023-02-18T13:44:56.567Z,12.27
2023-02-18T13:47:49.456Z,13.47
2023-02-18T13:50:21.970Z,9.87
2023-02-18T13:52:57.431Z,19.00
2023-02-18T13:55:47.145Z,8.50
2023-02-18T13:58:21.348Z,15.83
2023-02-18T14:00:56.833Z,14.10
2023-02-18T14:03:43.314Z,10.43
2023-02-18T14:06:19.710Z,10.80
2023-02-18T14:08:47.583Z,10.27
2023-02-18T14:11:16.860Z,8.70
2023-02-18T14:13:49.015Z,9.10
2023-02-18T14:16:16.022Z,9.30
2023-02-18T14:18:55.045Z,11.90
2023-02-18T14:21:36.213Z,8.83
2023-02-18T14:24:10.743Z,1.50
2023-02-18T14:26:43.220Z,5.03
2023-02-18T14:29:22.396Z,7.50
2023-02-18T14:32:00.244Z,2.50
2023-02-18T14:34:41.383Z,2.13
2023-02-18T14:37:29.871Z,2.73
2023-02-18T14:40:36.062Z,6.83
2023-02-18T14:43:11.788Z,1.93
2023-02-18T14:45:47.496Z,2.53
2023-02-18T14:48:23.240Z,2.50
2023-02-18T14:50:51.358Z,3.33
2023-02-18T14:53:21.573Z,3.23
2023-02-18T14:55:50.702Z,2.07
2023-02-18T14:58:41.136Z,2.20
2023-02-18T15:01:18.659Z,2.40
2023-02-18T15:03:48.293Z,4.03
2023-02-18T15:06:33.097Z,7.37
2023-02-18T15:09:01.091Z,2.20
2023-02-18T15:11:51.987Z,1.83
2023-02-18T15:14:21.794Z,1.47
2023-02-18T15:16:49.639Z,5.23
2023-02-18T15:19:19.737Z,1.47
2023-02-18T15:21:49.003Z,1.23
2023-02-18T15:24:38.306Z,1.27
2023-02-18T15:27:23.786Z,2.07
2023-02-18T15:29:52.464Z,1.00
2023-02-18T15:32:22.882Z,1.10
2023-02-18T15:34:56.272Z,1.00
2023-02-18T15:37:23.025Z,0.90
2023-02-18T15:39:50.459Z,1.03
2023-02-18T15:42:22.367Z,1.00
2023-02-18T15:44:52.967Z,1.00
2023-02-18T15:47:21.268Z,2.90
2023-02-18T15:49:54.062Z,1.30
2023-02-18T15:52:30.376Z,1.43
2023-02-18T15:55:02.341Z,0.83
2023-02-18T15:57:30.243Z,2.10
2023-02-18T16:00:04.454Z,0.70
2023-02-18T16:02:33.650Z,1.57
2023-02-18T16:05:05.011Z,1.53
2023-02-18T16:07:38.195Z,1.37
2023-02-18T16:10:24.327Z,2.07
2023-02-18T16:12:54.982Z,1.33
2023-02-18T16:15:31.784Z,1.13
2023-02-18T16:18:01.353Z,1.03
2023-02-18T16:20:33.627Z,1.07
2023-02-18T16:23:12.330Z,2.17
2023-02-18T16:25:38.891Z,1.60
2023-02-18T16:28:12.716Z,3.17
2023-02-18T16:30:41.457Z,3.30
2023-02-18T16:33:08.853Z,5.50
2023-02-18T16:35:49.049Z,4.63
2023-02-18T16:38:21.571Z,4.23
2023-02-18T16:40:49.072Z,3.70
2023-02-18T16:43:18.920Z,2.30
2023-02-18T16:45:51.533Z,1.47
2023-02-18T16:48:29.733Z,5.87
2023-02-18T16:50:56.753Z,4.23
2023-02-18T16:53:23.713Z,2.50
2023-02-18T16:55:51.027Z,6.10
2023-02-18T16:58:17.795Z,2.60
2023-02-18T17:00:45.696Z,2.00
2023-02-18T17:03:13.253Z,5.60
2023-02-18T17:05:40.558Z,2.30
2023-02-18T17:08:18.511Z,2.00
2023-02-18T17:10:49.098Z,2.07
2023-02-18T17:13:21.663Z,3.07
2023-02-18T17:15:51.609Z,3.50
2023-02-18T17:18:18.600Z,6.50
2023-02-18T17:20:45.902Z,5.67
2023-02-18T17:23:17.357Z,6.03
2023-02-18T17:25:45.542Z,3.80
2023-02-18T17:28:12.273Z,3.63
2023-02-18T17:30:40.598Z,2.97
2023-02-18T17:33:11.883Z,3.43
2023-02-18T17:35:38.466Z,2.80
2023-02-18T17:38:11.527Z,3.70
2023-02-18T17:40:38.617Z,2.20
2023-02-18T17:43:05.480Z,6.60
2023-02-18T17:45:39.978Z,3.10
2023-02-18T17:48:06.648Z,3.07
2023-02-18T17:50:33.286Z,7.73
2023-02-18T17:52:59.981Z,4.23
2023-02-18T17:55:29.724Z,4.50
2023-02-18T17:57:57.331Z,3.43
2023-02-18T18:00:38.468Z,3.63
2023-02-18T18:03:05.615Z,4.43
2023-02-18T18:05:35.154Z,7.60
2023-02-18T18:08:03.241Z,5.23
2023-02-18T18:10:33.078Z,6.10
2023-02-18T18:13:02.628Z,7.83
2023-02-18T18:15:41.144Z,4.30
2023-02-18T18:18:07.893Z,9.77
2023-02-18T18:20:35.426Z,11.00
2023-02-18T18:23:04.384Z,9.67
2023-02-18T18:25:38.120Z,8.13
2023-02-18T18:28:06.093Z,7.00
2023-02-18T18:30:36.943Z,7.83
2023-02-18T18:33:10.994Z,7.43
2023-02-18T18:35:38.591Z,9.33
2023-02-18T18:38:05.205Z,8.70
2023-02-18T18:40:33.331Z,11.13
2023-02-18T18:43:01.465Z,7.97
2023-02-18T18:45:34.785Z,12.27
2023-02-18T18:48:01.415Z,22.03
2023-02-18T18:50:28.423Z,9.03
2023-02-18T18:52:55.698Z,11.47
2023-02-18T18:55:24.052Z,9.03
2023-02-18T18:57:51.407Z,17.83
2023-02-18T19:00:20.190Z,12.10
2023-02-18T19:02:46.859Z,11.33
2023-02-18T19:05:24.100Z,13.13
2023-02-18T19:07:50.956Z,15.93
2023-02-18T19:10:18.863Z,17.97
2023-02-18T19:12:46.188Z,15.23
2023-02-18T19:15:15.982Z,15.60
2023-02-18T19:17:51.667Z,12.77
2023-02-18T19:20:22.353Z,22.27
2023-02-18T19:22:49.229Z,21.50
2023-02-18T19:25:17.373Z,17.20
2023-02-18T19:27:45.451Z,15.93
2023-02-18T19:30:15.520Z,12.47
2023-02-18T19:32:42.186Z,14.90
2023-02-18T19:35:09.047Z,12.30
2023-02-18T19:37:36.447Z,17.07
2023-02-18T19:40:05.665Z,17.83
2023-02-18T19:42:32.392Z,16.37
2023-02-18T19:44:59.029Z,17.03
2023-02-18T19:47:26.772Z,20.43
2023-02-18T19:49:54.017Z,16.30
2023-02-18T19:52:21.839Z,17.17
2023-02-18T19:54:48.478Z,13.47
2023-02-18T19:57:15.214Z,14.27
2023-02-18T19:59:42.082Z,17.83
2023-02-18T20:02:14.225Z,14.63
2023-02-18T20:04:41.218Z,15.40
2023-02-18T20:07:07.941Z,13.77
2023-02-18T20:09:34.719Z,10.93
2023-02-18T20:12:01.523Z,11.77
2023-02-18T20:14:29.333Z,17.13
2023-02-18T20:16:56.435Z,11.37
2023-02-18T20:19:25.817Z,15.03
2023-02-18T20:21:52.487Z,15.10
2023-02-18T20:24:19.087Z,15.43
2023-02-18T20:26:45.787Z,13.73
2023-02-18T20:29:12.415Z,26.60
2023-02-18T20:31:39.433Z,13.37
2023-02-18T20:34:06.108Z,12.50
2023-02-18T20:36:32.745Z,13.37
2023-02-18T20:39:07.686Z,12.57
2023-02-18T20:41:37.480Z,12.47
2023-02-18T20:44:04.981Z,12.10
2023-02-18T20:46:32.518Z,10.83
2023-02-18T20:48:59.522Z,9.90
2023-02-18T20:51:26.162Z,12.70
2023-02-18T20:53:52.979Z,9.03
2023-02-18T20:56:21.006Z,10.23
2023-02-18T20:58:48.488Z,11.27
2023-02-18T21:01:16.511Z,6.83
2023-02-18T21:03:45.115Z,6.27
2023-02-18T21:06:15.202Z,8.10
2023-02-18T21:08:43.207Z,9.10
2023-02-18T21:11:16.811Z,12.73
2023-02-18T21:13:45.728Z,8.63
2023-02-18T21:16:12.930Z,10.63
2023-02-18T21:18:39.704Z,10.03
2023-02-18T21:21:08.796Z,8.30
2023-02-18T21:23:36.074Z,8.10
2023-02-18T21:26:12.065Z,15.00
2023-02-18T21:28:39.403Z,9.53
2023-02-18T21:31:15.579Z,12.83
2023-02-18T21:33:42.232Z,12.80
2023-02-18T21:36:08.968Z,11.17
2023-02-18T21:38:35.596Z,9.40
2023-02-18T21:41:04.711Z,7.83
2023-02-18T21:43:31.418Z,9.07
2023-02-18T21:46:15.464Z,15.43
2023-02-18T21:49:00.982Z,17.20
2023-02-18T21:51:47.507Z,12.63
2023-02-18T21:54:16.569Z,14.23
2023-02-18T21:56:43.272Z,8.77
2023-02-18T21:59:09.905Z,24.60
2023-02-18T22:01:36.617Z,7.23
2023-02-18T22:04:03.378Z,8.07
2023-02-18T22:06:29.975Z,7.10
2023-02-18T22:08:59.124Z,7.67
2023-02-18T22:11:25.720Z,9.30
2023-02-18T22:13:52.332Z,11.77
2023-02-18T22:16:18.961Z,14.40
2023-02-18T22:18:45.688Z,9.37
2023-02-18T22:21:12.599Z,13.20
2023-02-18T22:23:39.386Z,10.23
2023-02-18T22:26:10.984Z,11.30
2023-02-18T22:28:37.770Z,12.03
2023-02-18T22:31:09.832Z,13.77
2023-02-18T22:33:36.875Z,16.93
2023-02-18T22:36:07.595Z,16.60
2023-02-18T22:38:36.134Z,19.43
2023-02-18T22:41:05.148Z,12.80
2023-02-18T22:43:31.853Z,11.50
2023-02-18T22:46:03.259Z,14.43
2023-02-18T22:48:32.507Z,18.57
2023-02-18T22:51:12.760Z,22.93
2023-02-18T22:53:40.598Z,10.33
2023-02-18T22:56:10.519Z,16.40
2023-02-18T22:58:37.122Z,13.57
2023-02-18T23:01:04.923Z,15.73
2023-02-18T23:03:31.604Z,12.73
2023-02-18T23:06:03.115Z,13.30
2023-02-18T23:08:31.344Z,9.50
2023-02-18T23:11:13.360Z,12.80
2023-02-18T23:13:40.704Z,14.53
2023-02-18T23:16:11.733Z,15.10
2023-02-18T23:18:38.707Z,25.93
2023-02-18T23:21:17.428Z,9.83
2023-02-18T23:23:50.203Z,13.20
2023-02-18T23:26:17.710Z,12.63
2023-02-18T23:28:47.803Z,7.80
2023-02-18T23:31:16.969Z,11.60
2023-02-18T23:33:44.292Z,16.80
2023-02-18T23:36:13.023Z,7.80
2023-02-18T23:38:39.652Z,12.10
2023-02-18T23:41:06.754Z,11.10
2023-02-18T23:43:33.715Z,19.90
2023-02-18T23:46:00.345Z,7.30
2023-02-18T23:48:26.986Z,10.63
2023-02-18T23:51:03.676Z,20.60
2023-02-18T23:53:31.831Z,7.50
2023-02-18T23:56:12.016Z,6.67
2023-02-18T23:58:39.399Z,9.37
